Time;durP1;ratioP1;P1;durP2;ratioP2;P2;SDS_P1;SDS_P2;PMS_P1;PMS_P2;Temp;Humidity;BMP_temperature;BMP_pressure;BME280_temperature;BME280_humidity;BME280_pressure;Samples;Min_cycle;Max_cycle;Signal;HPM_P1;HPM_P2
2021/10/19 00:00:04;;;;;;;14.77;12.23;;;;;;;;;;5063165;28;20177;-74
2021/10/19 00:02:30;;;;;;;15.70;12.95;;;;;;;;;;5058923;28;20295;-73
2021/10/19 00:04:56;;;;;;;16.45;13.13;;;;;;;;;;5038741;28;20224;-73
2021/10/19 00:07:21;;;;;;;13.73;11.77;;;;;;;;;;5062090;28;20173;-73
2021/10/19 00:09:46;;;;;;;14.48;12.98;;;;;;;;;;5060650;28;20190;-73
2021/10/19 00:12:11;;;;;;;17.50;14.30;;;;;;;;;;5057809;28;20205;-73
2021/10/19 00:14:36;;;;;;;16.20;12.30;;;;;;;;;;5064960;28;20430;-71
2021/10/19 00:17:02;;;;;;;14.73;12.98;;;;;;;;;;5065047;28;20475;-74
2021/10/19 00:19:27;;;;;;;13.75;12.32;;;;;;;;;;5052377;28;20178;-74
2021/10/19 00:21:52;;;;;;;15.55;12.90;;;;;;;;;;5058315;28;20180;-74
2021/10/19 00:24:17;;;;;;;15.75;12.55;;;;;;;;;;5056843;28;20728;-74
2021/10/19 00:26:42;;;;;;;15.57;12.85;;;;;;;;;;5057693;28;20520;-73
2021/10/19 00:29:08;;;;;;;16.15;12.82;;;;;;;;;;5068070;28;20184;-73
2021/10/19 00:31:33;;;;;;;16.80;13.63;;;;;;;;;;5069558;28;20169;-74
2021/10/19 00:33:58;;;;;;;14.10;12.35;;;;;;;;;;5067135;28;20598;-74
2021/10/19 00:36:23;;;;;;;14.77;13.20;;;;;;;;;;5060158;28;20220;-72
2021/10/19 00:38:48;;;;;;;14.75;13.10;;;;;;;;;;5062739;28;20180;-72
2021/10/19 00:41:13;;;;;;;18.48;13.43;;;;;;;;;;5061391;28;20181;-72
2021/10/19 00:43:39;;;;;;;15.30;13.10;;;;;;;;;;5064141;28;20284;-72
2021/10/19 00:46:04;;;;;;;18.05;12.82;;;;;;;;;;5056053;28;20204;-72
2021/10/19 00:48:31;;;;;;;14.45;12.95;;;;;;;;;;5061322;28;20188;-72
2021/10/19 00:50:57;;;;;;;16.10;13.10;;;;;;;;;;5041098;28;20174;-72
2021/10/19 00:53:22;;;;;;;16.50;12.55;;;;;;;;;;5064116;28;20193;-72
2021/10/19 00:55:47;;;;;;;15.13;13.38;;;;;;;;;;5063747;28;20179;-72
2021/10/19 00:58:12;;;;;;;18.35;12.70;;;;;;;;;;5058660;28;20651;-72
2021/10/19 01:00:37;;;;;;;17.17;12.45;;;;;;;;;;5056372;28;20186;-72
2021/10/19 01:03:03;;;;;;;15.10;12.80;;;;;;;;;;5060825;28;20215;-72
2021/10/19 01:05:28;;;;;;;13.77;12.30;;;;;;;;;;5057111;28;20205;-72
2021/10/19 01:07:54;;;;;;;13.45;12.00;;;;;;;;;;5066431;28;20184;-72
2021/10/19 01:10:19;;;;;;;14.48;12.75;;;;;;;;;;5066901;28;20186;-72
2021/10/19 01:12:44;;;;;;;15.25;12.52;;;;;;;;;;5063925;28;20220;-72
2021/10/19 01:15:14;;;;;;;17.50;13.25;;;;;;;;;;5062789;28;20177;-72
2021/10/19 01:17:49;;;;;;;16.13;13.23;;;;;;;;;;5061573;28;20177;-72
2021/10/19 01:20:15;;;;;;;16.33;13.48;;;;;;;;;;5057961;28;20555;-73
2021/10/19 01:22:40;;;;;;;16.27;13.50;;;;;;;;;;5063438;28;20198;-72
2021/10/19 01:25:06;;;;;;;16.92;13.68;;;;;;;;;;5048707;28;20192;-72
2021/10/19 01:27:31;;;;;;;18.52;14.70;;;;;;;;;;5058021;28;20678;-72
2021/10/19 01:29:56;;;;;;;16.80;15.00;;;;;;;;;;5065930;28;20661;-72
2021/10/19 01:32:21;;;;;;;16.75;15.05;;;;;;;;;;5055112;28;20441;-72
2021/10/19 01:34:46;;;;;;;17.00;14.50;;;;;;;;;;5052298;28;20180;-72
2021/10/19 01:37:12;;;;;;;16.67;13.80;;;;;;;;;;5056435;28;20422;-72
2021/10/19 01:39:37;;;;;;;16.07;14.43;;;;;;;;;;5054600;28;20280;-72
2021/10/19 01:42:02;;;;;;;16.90;14.82;;;;;;;;;;5053246;28;20426;-72
2021/10/19 01:44:27;;;;;;;16.52;14.45;;;;;;;;;;5063877;28;20182;-72
2021/10/19 01:46:52;;;;;;;15.60;13.85;;;;;;;;;;5049569;28;20169;-72
2021/10/19 01:49:18;;;;;;;17.65;14.95;;;;;;;;;;5050830;28;20173;-72
2021/10/19 01:51:43;;;;;;;17.08;13.75;;;;;;;;;;5054997;28;20176;-73
2021/10/19 01:54:08;;;;;;;16.80;14.82;;;;;;;;;;5062094;28;20672;-74
2021/10/19 01:56:33;;;;;;;22.63;14.93;;;;;;;;;;5050221;28;20237;-72
2021/10/19 01:58:58;;;;;;;18.58;15.60;;;;;;;;;;5059303;28;20199;-73
2021/10/19 02:01:23;;;;;;;19.37;15.30;;;;;;;;;;5038840;28;20193;-72
2021/10/19 02:03:49;;;;;;;20.70;15.70;;;;;;;;;;5057771;28;20601;-72
2021/10/19 02:06:14;;;;;;;18.50;14.60;;;;;;;;;;5057030;28;20200;-73
2021/10/19 02:08:40;;;;;;;17.13;14.85;;;;;;;;;;5058357;28;20178;-72
2021/10/19 02:11:05;;;;;;;17.60;15.35;;;;;;;;;;5055504;28;20177;-72
2021/10/19 02:13:30;;;;;;;17.25;14.02;;;;;;;;;;5059959;28;20415;-73
2021/10/19 02:15:56;;;;;;;19.42;15.73;;;;;;;;;;5053905;28;20188;-73
2021/10/19 02:18:21;;;;;;;19.77;16.35;;;;;;;;;;5059001;28;20182;-73
2021/10/19 02:20:46;;;;;;;20.40;16.05;;;;;;;;;;5042770;28;20181;-73
2021/10/19 02:23:11;;;;;;;19.17;16.13;;;;;;;;;;5059869;28;20662;-73
2021/10/19 02:25:37;;;;;;;19.90;16.45;;;;;;;;;;5056082;28;20201;-73
2021/10/19 02:28:02;;;;;;;18.52;15.98;;;;;;;;;;5045024;28;20263;-73
2021/10/19 02:30:28;;;;;;;21.15;18.60;;;;;;;;;;5060254;28;20208;-73
2021/10/19 02:32:54;;;;;;;20.52;15.90;;;;;;;;;;5059392;28;20199;-73
2021/10/19 02:35:20;;;;;;;17.90;15.98;;;;;;;;;;5056065;28;20180;-73
2021/10/19 02:37:46;;;;;;;25.35;16.08;;;;;;;;;;5058890;28;20624;-72
2021/10/19 02:40:12;;;;;;;17.75;15.35;;;;;;;;;;5057463;28;20264;-73
2021/10/19 02:42:38;;;;;;;21.90;16.85;;;;;;;;;;5056761;28;20199;-73
2021/10/19 02:45:03;;;;;;;18.13;16.27;;;;;;;;;;5060322;28;20204;-73
2021/10/19 02:47:28;;;;;;;19.10;15.50;;;;;;;;;;5057157;28;20181;-73
2021/10/19 02:49:54;;;;;;;19.98;17.27;;;;;;;;;;5063335;28;20210;-73
2021/10/19 02:52:19;;;;;;;19.08;16.88;;;;;;;;;;5037504;28;20600;-73
2021/10/19 02:54:44;;;;;;;18.30;16.25;;;;;;;;;;5057547;28;20185;-72
2021/10/19 02:57:10;;;;;;;21.77;17.08;;;;;;;;;;5047742;28;20226;-72
2021/10/19 02:59:35;;;;;;;17.90;15.98;;;;;;;;;;5057921;28;20633;-73
2021/10/19 03:02:00;;;;;;;20.50;16.38;;;;;;;;;;5060799;28;20307;-72
2021/10/19 03:04:25;;;;;;;19.80;17.13;;;;;;;;;;5062526;28;20193;-73
2021/10/19 03:06:51;;;;;;;20.25;16.88;;;;;;;;;;5052276;28;20165;-73
2021/10/19 03:09:16;;;;;;;20.17;16.70;;;;;;;;;;5056689;28;20186;-72
2021/10/19 03:11:41;;;;;;;20.27;15.97;;;;;;;;;;5044433;28;20522;-72
2021/10/19 03:14:06;;;;;;;19.42;17.33;;;;;;;;;;5061830;28;20495;-72
2021/10/19 03:16:31;;;;;;;18.45;16.52;;;;;;;;;;5066549;28;20208;-72
2021/10/19 03:18:57;;;;;;;18.58;16.60;;;;;;;;;;5065095;28;20177;-72
2021/10/19 03:21:22;;;;;;;17.85;15.82;;;;;;;;;;5041747;28;20168;-72
2021/10/19 03:23:47;;;;;;;17.63;15.73;;;;;;;;;;5051654;28;20204;-72
2021/10/19 03:26:16;;;;;;;18.73;16.35;;;;;;;;;;5062360;28;20303;-72
2021/10/19 03:28:41;;;;;;;19.33;16.67;;;;;;;;;;5065452;28;20173;-73
2021/10/19 03:31:06;;;;;;;21.20;15.98;;;;;;;;;;5041369;28;20189;-73
2021/10/19 03:33:31;;;;;;;18.25;16.13;;;;;;;;;;5055082;28;20201;-72
2021/10/19 03:35:56;;;;;;;18.00;15.67;;;;;;;;;;5061404;28;20208;-73
2021/10/19 03:38:21;;;;;;;19.15;17.15;;;;;;;;;;5059690;28;20449;-72
2021/10/19 03:40:47;;;;;;;20.85;16.67;;;;;;;;;;5059768;28;20185;-72
2021/10/19 03:43:12;;;;;;;18.92;16.92;;;;;;;;;;5062140;28;20216;-72
2021/10/19 03:45:37;;;;;;;18.77;16.85;;;;;;;;;;5058224;28;20362;-73
2021/10/19 03:48:03;;;;;;;18.67;16.73;;;;;;;;;;5061744;28;20563;-74
2021/10/19 03:50:28;;;;;;;17.33;15.63;;;;;;;;;;5064042;28;20186;-74
2021/10/19 03:52:57;;;;;;;18.02;15.80;;;;;;;;;;5055630;28;20204;-74
2021/10/19 03:55:22;;;;;;;19.02;16.95;;;;;;;;;;5044823;28;20180;-72
2021/10/19 03:57:47;;;;;;;18.42;16.52;;;;;;;;;;5065785;28;20180;-72
2021/10/19 04:00:13;;;;;;;18.43;16.53;;;;;;;;;;5057518;28;20173;-72
2021/10/19 04:02:38;;;;;;;18.55;16.58;;;;;;;;;;5059678;28;20447;-72
2021/10/19 04:05:03;;;;;;;19.05;16.13;;;;;;;;;;5061223;28;20611;-72
2021/10/19 04:07:29;;;;;;;19.02;15.80;;;;;;;;;;5054882;28;20597;-72
2021/10/19 04:09:54;;;;;;;18.37;16.47;;;;;;;;;;5057769;28;20169;-73
2021/10/19 04:12:19;;;;;;;18.30;16.27;;;;;;;;;;5065039;28;20446;-73
2021/10/19 04:14:44;;;;;;;19.30;17.33;;;;;;;;;;5071249;28;20207;-72
2021/10/19 04:17:09;;;;;;;18.83;16.87;;;;;;;;;;5059275;28;20426;-72
2021/10/19 04:19:34;;;;;;;18.42;16.52;;;;;;;;;;5061149;28;20427;-72
2021/10/19 04:21:59;;;;;;;18.60;16.60;;;;;;;;;;5055209;28;20190;-73
2021/10/19 04:24:25;;;;;;;22.08;17.77;;;;;;;;;;5067246;28;20178;-72
2021/10/19 04:26:50;;;;;;;19.55;17.40;;;;;;;;;;5063185;28;20702;-75
2021/10/19 04:29:15;;;;;;;19.20;17.30;;;;;;;;;;5067851;28;20177;-73
2021/10/19 04:31:41;;;;;;;18.98;16.05;;;;;;;;;;5062148;28;20260;-74
2021/10/19 04:34:07;;;;;;;17.85;16.02;;;;;;;;;;5056083;28;20324;-73
2021/10/19 04:36:32;;;;;;;19.33;17.25;;;;;;;;;;5052584;28;20213;-73
2021/10/19 04:38:57;;;;;;;18.02;16.13;;;;;;;;;;5056324;28;20308;-73
2021/10/19 04:41:23;;;;;;;19.02;17.02;;;;;;;;;;5053870;28;20270;-74
2021/10/19 04:43:48;;;;;;;17.05;15.35;;;;;;;;;;5058262;28;20208;-74
2021/10/19 04:46:13;;;;;;;18.73;16.83;;;;;;;;;;5052392;28;20201;-73
2021/10/19 04:48:38;;;;;;;19.15;17.27;;;;;;;;;;5041578;28;20177;-74
2021/10/19 04:51:04;;;;;;;19.13;17.13;;;;;;;;;;5068768;28;20438;-75
2021/10/19 04:53:30;;;;;;;18.17;16.17;;;;;;;;;;5061394;28;20200;-75
2021/10/19 04:55:56;;;;;;;18.48;16.55;;;;;;;;;;5056920;28;20184;-75
2021/10/19 04:58:21;;;;;;;17.52;15.82;;;;;;;;;;5059329;28;20177;-74
2021/10/19 05:00:47;;;;;;;18.53;16.63;;;;;;;;;;5044344;28;20226;-75
2021/10/19 05:03:13;;;;;;;18.50;15.73;;;;;;;;;;5049669;28;20462;-73
2021/10/19 05:05:38;;;;;;;17.48;15.77;;;;;;;;;;5055749;28;20564;-74
2021/10/19 05:08:03;;;;;;;18.75;16.77;;;;;;;;;;5055136;28;20182;-74
2021/10/19 05:10:29;;;;;;;18.35;16.55;;;;;;;;;;5057149;28;20185;-74
2021/10/19 05:12:54;;;;;;;17.23;15.50;;;;;;;;;;5065145;28;20266;-73
2021/10/19 05:15:21;;;;;;;17.52;15.73;;;;;;;;;;5056525;28;20434;-73
2021/10/19 05:17:46;;;;;;;16.98;15.27;;;;;;;;;;5037294;28;20182;-74
2021/10/19 05:20:11;;;;;;;17.58;15.77;;;;;;;;;;5064373;28;20188;-74
2021/10/19 05:22:36;;;;;;;17.63;15.82;;;;;;;;;;5061661;28;20259;-74
2021/10/19 05:25:02;;;;;;;19.52;17.00;;;;;;;;;;5058173;28;20197;-74
2021/10/19 05:27:27;;;;;;;18.55;16.77;;;;;;;;;;5064421;28;20231;-74
2021/10/19 05:29:53;;;;;;;18.05;16.25;;;;;;;;;;5064622;28;20169;-74
2021/10/19 05:32:18;;;;;;;18.83;17.00;;;;;;;;;;5060423;28;20200;-74
2021/10/19 05:34:43;;;;;;;18.67;16.77;;;;;;;;;;5061983;28;20191;-74
2021/10/19 05:37:08;;;;;;;18.48;16.67;;;;;;;;;;5041403;28;20174;-74
2021/10/19 05:39:34;;;;;;;17.15;15.52;;;;;;;;;;5057644;28;20202;-74
2021/10/19 05:41:59;;;;;;;19.48;17.58;;;;;;;;;;5068224;28;20219;-74
2021/10/19 05:44:24;;;;;;;18.30;16.50;;;;;;;;;;5061016;28;20185;-74
2021/10/19 05:46:50;;;;;;;18.45;16.65;;;;;;;;;;5060678;28;20216;-74
2021/10/19 05:49:15;;;;;;;18.60;16.80;;;;;;;;;;5048736;28;20205;-74
2021/10/19 05:51:40;;;;;;;18.17;16.37;;;;;;;;;;5064959;28;20448;-74
2021/10/19 05:54:05;;;;;;;17.95;16.15;;;;;;;;;;5064665;28;20438;-75
2021/10/19 05:56:30;;;;;;;18.27;16.48;;;;;;;;;;5060378;28;20239;-74
2021/10/19 05:58:56;;;;;;;20.20;18.17;;;;;;;;;;5043379;28;20692;-74
2021/10/19 06:01:21;;;;;;;18.80;16.90;;;;;;;;;;5051774;28;20277;-74
2021/10/19 06:03:46;;;;;;;19.83;17.77;;;;;;;;;;5048608;28;20466;-75
2021/10/19 06:06:15;;;;;;;21.10;18.85;;;;;;;;;;5047508;28;20216;-75
2021/10/19 06:08:40;;;;;;;19.85;17.75;;;;;;;;;;5031750;28;20174;-75
2021/10/19 06:11:05;;;;;;;22.15;19.48;;;;;;;;;;5048941;28;20550;-75
2021/10/19 06:13:31;;;;;;;20.98;18.77;;;;;;;;;;5049225;28;20192;-75
2021/10/19 06:15:56;;;;;;;22.02;19.73;;;;;;;;;;5048139;28;20224;-75
2021/10/19 06:18:24;;;;;;;21.65;19.42;;;;;;;;;;5054400;28;20310;-74
2021/10/19 06:20:49;;;;;;;23.63;20.73;;;;;;;;;;5031192;28;20189;-75
2021/10/19 06:23:15;;;;;;;22.15;19.58;;;;;;;;;;5050301;28;20809;-76
2021/10/19 06:25:40;;;;;;;21.75;19.42;;;;;;;;;;5033823;28;20208;-75
2021/10/19 06:28:05;;;;;;;23.00;20.52;;;;;;;;;;5056790;28;20184;-74
2021/10/19 06:30:31;;;;;;;23.00;20.13;;;;;;;;;;5046853;28;20180;-74
2021/10/19 06:32:56;;;;;;;23.08;20.58;;;;;;;;;;5047364;28;20671;-74
2021/10/19 06:35:21;;;;;;;22.05;19.45;;;;;;;;;;5032662;28;20727;-74
2021/10/19 06:37:46;;;;;;;21.50;19.30;;;;;;;;;;5045540;28;20195;-74
2021/10/19 06:40:11;;;;;;;21.98;19.65;;;;;;;;;;5047527;28;20806;-73
2021/10/19 06:42:37;;;;;;;21.80;19.38;;;;;;;;;;5052413;28;20402;-75
2021/10/19 06:45:02;;;;;;;22.47;20.13;;;;;;;;;;5048366;28;20205;-75
2021/10/19 06:47:29;;;;;;;24.85;20.70;;;;;;;;;;5047249;28;21084;-75
2021/10/19 06:49:54;;;;;;;21.83;19.52;;;;;;;;;;5051741;28;20529;-74
2021/10/19 06:52:19;;;;;;;22.85;19.77;;;;;;;;;;5033609;28;20196;-74
2021/10/19 06:54:44;;;;;;;25.17;21.08;;;;;;;;;;5050182;28;20193;-74
2021/10/19 06:57:11;;;;;;;23.50;20.47;;;;;;;;;;5054962;28;20179;-76
2021/10/19 06:59:36;;;;;;;23.65;21.15;;;;;;;;;;5051773;28;20815;-75
2021/10/19 07:02:02;;;;;;;24.63;20.87;;;;;;;;;;5041369;28;20204;-74
2021/10/19 07:04:27;;;;;;;24.27;21.27;;;;;;;;;;5063568;28;20445;-74
2021/10/19 07:06:52;;;;;;;25.97;22.10;;;;;;;;;;5064975;28;20502;-75
2021/10/19 07:09:17;;;;;;;25.73;21.23;;;;;;;;;;5065039;28;20453;-74
2021/10/19 07:11:42;;;;;;;24.70;21.88;;;;;;;;;;5034962;28;20425;-75
2021/10/19 07:14:07;;;;;;;22.07;18.97;;;;;;;;;;5063232;28;20221;-75
2021/10/19 07:16:33;;;;;;;24.43;21.30;;;;;;;;;;5051422;28;20498;-74
2021/10/19 07:18:58;;;;;;;23.65;20.48;;;;;;;;;;5056480;28;20457;-74
2021/10/19 07:21:23;;;;;;;24.38;21.10;;;;;;;;;;5063181;28;20173;-75
2021/10/19 07:23:48;;;;;;;23.83;20.35;;;;;;;;;;5068931;28;20634;-74
2021/10/19 07:26:14;;;;;;;23.80;21.13;;;;;;;;;;5054436;28;20207;-76
2021/10/19 07:28:39;;;;;;;23.60;20.27;;;;;;;;;;5066211;28;20422;-74
2021/10/19 07:31:04;;;;;;;24.23;21.67;;;;;;;;;;5044316;28;20522;-75
2021/10/19 07:33:29;;;;;;;24.15;21.55;;;;;;;;;;5042254;28;20483;-73
2021/10/19 07:35:54;;;;;;;23.40;20.73;;;;;;;;;;5062518;28;20256;-73
2021/10/19 07:38:20;;;;;;;23.65;19.58;;;;;;;;;;5062539;28;20422;-76
2021/10/19 07:40:45;;;;;;;23.00;20.37;;;;;;;;;;5067156;28;20339;-73
2021/10/19 07:43:10;;;;;;;22.47;19.80;;;;;;;;;;5063833;28;20454;-75
2021/10/19 07:45:36;;;;;;;21.30;19.10;;;;;;;;;;5062166;28;20518;-74
2021/10/19 07:48:01;;;;;;;21.85;19.63;;;;;;;;;;5069825;28;20180;-75
2021/10/19 07:50:29;;;;;;;22.50;19.13;;;;;;;;;;5063611;28;20173;-75
2021/10/19 07:52:55;;;;;;;21.98;19.40;;;;;;;;;;5062346;28;20560;-75
2021/10/19 07:55:20;;;;;;;22.25;18.08;;;;;;;;;;5071249;28;20188;-75
2021/10/19 07:57:46;;;;;;;21.77;19.48;;;;;;;;;;5069835;28;20185;-76
2021/10/19 08:00:13;;;;;;;21.55;19.33;;;;;;;;;;5038601;28;20263;-74
2021/10/19 08:02:41;;;;;;;19.90;17.80;;;;;;;;;;5068010;28;20207;-75
2021/10/19 08:05:09;;;;;;;21.10;18.90;;;;;;;;;;5046593;28;20197;-74
2021/10/19 08:07:34;;;;;;;19.58;17.58;;;;;;;;;;5069672;28;20177;-74
2021/10/19 08:09:59;;;;;;;19.90;17.83;;;;;;;;;;5064037;28;20238;-74
2021/10/19 08:12:25;;;;;;;20.03;17.93;;;;;;;;;;5067992;28;20240;-74
2021/10/19 08:14:50;;;;;;;19.23;17.23;;;;;;;;;;5069048;28;20495;-74
2021/10/19 08:17:15;;;;;;;24.37;16.57;;;;;;;;;;5059092;28;20461;-73
2021/10/19 08:19:40;;;;;;;17.77;16.08;;;;;;;;;;5063794;28;20468;-75
2021/10/19 08:22:06;;;;;;;18.07;16.30;;;;;;;;;;5050170;28;20895;-74
2021/10/19 08:24:31;;;;;;;17.20;15.48;;;;;;;;;;5041897;28;20412;-75
2021/10/19 08:26:56;;;;;;;17.20;15.50;;;;;;;;;;5052064;28;20618;-74
2021/10/19 08:29:21;;;;;;;17.13;15.17;;;;;;;;;;5055092;28;20520;-74
2021/10/19 08:31:47;;;;;;;17.13;14.87;;;;;;;;;;5053778;28;20838;-74
2021/10/19 08:34:12;;;;;;;15.75;14.15;;;;;;;;;;5051754;28;20421;-75
2021/10/19 08:36:37;;;;;;;15.32;13.80;;;;;;;;;;5049573;28;20188;-75
2021/10/19 08:39:02;;;;;;;15.90;14.40;;;;;;;;;;5031208;28;20593;-74
2021/10/19 08:41:30;;;;;;;14.60;13.10;;;;;;;;;;5045079;28;20275;-76
2021/10/19 08:43:56;;;;;;;15.88;14.38;;;;;;;;;;5052239;28;20204;-73
2021/10/19 08:46:21;;;;;;;13.63;12.32;;;;;;;;;;5047539;28;20646;-74
2021/10/19 08:48:46;;;;;;;14.05;12.65;;;;;;;;;;5048265;28;20207;-74
2021/10/19 08:51:11;;;;;;;12.80;11.50;;;;;;;;;;5050620;28;20280;-74
2021/10/19 08:53:37;;;;;;;12.68;11.48;;;;;;;;;;5049181;28;20765;-74
2021/10/19 08:56:04;;;;;;;13.10;11.90;;;;;;;;;;5049310;28;20296;-74
2021/10/19 08:58:29;;;;;;;12.23;11.13;;;;;;;;;;5048530;28;20689;-74
2021/10/19 09:01:10;;;;;;;12.43;11.23;;;;;;;;;;5048149;28;20193;-74
2021/10/19 09:03:46;;;;;;;12.00;10.85;;;;;;;;;;5047118;28;20219;-74
2021/10/19 09:06:11;;;;;;;13.07;11.77;;;;;;;;;;5051699;28;20284;-74
2021/10/19 09:08:38;;;;;;;12.73;11.52;;;;;;;;;;5045603;28;20588;-74
2021/10/19 09:11:11;;;;;;;11.98;10.88;;;;;;;;;;5047582;28;20180;-75
2021/10/19 09:13:37;;;;;;;12.43;11.23;;;;;;;;;;5048352;28;20207;-75
2021/10/19 09:16:05;;;;;;;12.45;11.10;;;;;;;;;;5048161;28;20185;-74
2021/10/19 09:18:30;;;;;;;13.20;11.90;;;;;;;;;;5053724;28;20193;-74
2021/10/19 09:20:55;;;;;;;13.70;12.40;;;;;;;;;;5029575;28;20181;-75
2021/10/19 09:23:24;;;;;;;12.77;11.60;;;;;;;;;;5056770;28;20189;-74
2021/10/19 09:25:51;;;;;;;12.73;11.43;;;;;;;;;;5046662;28;20818;-74
2021/10/19 09:28:29;;;;;;;13.82;12.52;;;;;;;;;;5051851;28;20215;-74
2021/10/19 09:30:54;;;;;;;14.27;12.98;;;;;;;;;;5048677;28;20193;-74
2021/10/19 09:33:20;;;;;;;13.93;12.55;;;;;;;;;;5049635;28;20201;-74
2021/10/19 09:35:50;;;;;;;15.88;14.27;;;;;;;;;;5051849;28;20185;-74
2021/10/19 09:38:15;;;;;;;15.40;13.80;;;;;;;;;;5049595;28;20281;-75
2021/10/19 09:40:40;;;;;;;16.30;14.70;;;;;;;;;;5051644;28;20271;-75
2021/10/19 09:43:07;;;;;;;16.65;14.95;;;;;;;;;;5049672;28;20259;-75
2021/10/19 09:45:33;;;;;;;17.02;15.38;;;;;;;;;;5052062;28;20208;-74
2021/10/19 09:47:58;;;;;;;17.98;16.08;;;;;;;;;;5047443;28;20174;-74
2021/10/19 09:50:24;;;;;;;19.65;16.98;;;;;;;;;;5050263;28;20237;-74
2021/10/19 09:52:50;;;;;;;20.05;17.98;;;;;;;;;;5047365;28;20732;-74
2021/10/19 09:55:16;;;;;;;21.00;17.75;;;;;;;;;;5051359;28;20190;-74
2021/10/19 09:57:42;;;;;;;18.67;16.52;;;;;;;;;;5050224;28;20184;-75
2021/10/19 10:00:08;;;;;;;22.00;17.00;;;;;;;;;;5047576;28;20215;-74
2021/10/19 10:02:34;;;;;;;20.42;18.33;;;;;;;;;;5034980;28;20323;-74
2021/10/19 10:05:00;;;;;;;21.83;18.48;;;;;;;;;;5048515;28;20205;-76
2021/10/19 10:07:30;;;;;;;20.52;18.17;;;;;;;;;;5049997;28;20302;-74
2021/10/19 10:09:55;;;;;;;20.75;18.60;;;;;;;;;;5045076;28;20189;-74
2021/10/19 10:12:26;;;;;;;21.63;19.20;;;;;;;;;;5048416;28;20208;-74
2021/10/19 10:14:51;;;;;;;22.55;19.80;;;;;;;;;;5048163;28;20305;-75
2021/10/19 10:17:19;;;;;;;25.47;18.93;;;;;;;;;;5049306;28;20207;-75
2021/10/19 10:19:44;;;;;;;25.33;19.85;;;;;;;;;;5049873;28;20410;-75
2021/10/19 10:22:19;;;;;;;22.70;18.45;;;;;;;;;;5031519;28;20718;-74
2021/10/19 10:24:47;;;;;;;19.23;16.95;;;;;;;;;;5037730;28;20187;-75
2021/10/19 10:27:15;;;;;;;24.08;19.20;;;;;;;;;;5054214;28;20688;-75
2021/10/19 10:29:42;;;;;;;21.02;18.17;;;;;;;;;;5058014;28;20264;-73
2021/10/19 10:32:18;;;;;;;24.30;18.48;;;;;;;;;;5053103;28;20201;-75
2021/10/19 10:34:43;;;;;;;20.42;17.70;;;;;;;;;;5037758;28;20205;-74
2021/10/19 10:37:11;;;;;;;22.42;18.08;;;;;;;;;;5055166;28;20312;-74
2021/10/19 10:39:39;;;;;;;21.83;17.88;;;;;;;;;;5058305;28;20169;-75
2021/10/19 10:42:08;;;;;;;20.60;16.40;;;;;;;;;;5038210;28;20182;-74
2021/10/19 10:44:40;;;;;;;22.75;18.20;;;;;;;;;;5052984;28;20911;-74
2021/10/19 10:47:06;;;;;;;20.20;16.77;;;;;;;;;;5036542;28;20197;-75
2021/10/19 10:49:32;;;;;;;20.13;15.75;;;;;;;;;;5055622;28;20233;-75
2021/10/19 10:51:58;;;;;;;24.17;18.15;;;;;;;;;;5062156;28;20173;-74
2021/10/19 10:54:26;;;;;;;21.00;16.85;;;;;;;;;;5039877;28;20184;-74
2021/10/19 10:56:53;;;;;;;20.45;16.50;;;;;;;;;;5040536;28;20647;-74
2021/10/19 10:59:25;;;;;;;18.48;15.32;;;;;;;;;;5040463;28;20666;-73
2021/10/19 11:01:50;;;;;;;21.40;15.48;;;;;;;;;;5064290;28;20599;-73
2021/10/19 11:04:16;;;;;;;18.42;16.42;;;;;;;;;;5061391;28;20200;-73
2021/10/19 11:06:41;;;;;;;18.10;15.25;;;;;;;;;;5057724;28;20665;-74
2021/10/19 11:09:13;;;;;;;17.98;15.30;;;;;;;;;;5052809;28;20184;-73
2021/10/19 11:11:39;;;;;;;19.08;15.55;;;;;;;;;;5053514;28;20189;-73
2021/10/19 11:14:05;;;;;;;17.20;15.20;;;;;;;;;;5053677;28;20702;-74
2021/10/19 11:16:36;;;;;;;17.92;15.40;;;;;;;;;;5043987;28;20185;-73
2021/10/19 11:19:03;;;;;;;16.30;14.65;;;;;;;;;;5058615;28;20191;-73
2021/10/19 11:21:29;;;;;;;15.27;12.98;;;;;;;;;;5059899;28;20654;-73
2021/10/19 11:23:55;;;;;;;15.98;14.38;;;;;;;;;;5063673;28;20204;-74
2021/10/19 11:26:20;;;;;;;15.50;13.52;;;;;;;;;;5053710;28;20228;-73
2021/10/19 11:28:45;;;;;;;16.05;14.43;;;;;;;;;;5067556;28;20195;-73
2021/10/19 11:31:12;;;;;;;15.88;14.13;;;;;;;;;;5041848;28;20661;-74
2021/10/19 11:33:55;;;;;;;17.15;13.82;;;;;;;;;;5044235;28;20275;-73
2021/10/19 11:36:21;;;;;;;15.15;13.43;;;;;;;;;;5051817;28;20684;-73
2021/10/19 11:38:48;;;;;;;14.57;12.98;;;;;;;;;;5052922;28;20406;-73
2021/10/19 11:41:14;;;;;;;15.02;12.93;;;;;;;;;;5054686;28;20200;-73
2021/10/19 11:43:48;;;;;;;15.80;12.57;;;;;;;;;;5052596;28;20799;-73
2021/10/19 11:46:18;;;;;;;16.20;14.05;;;;;;;;;;5057511;28;20236;-74
2021/10/19 11:48:43;;;;;;;14.57;12.95;;;;;;;;;;5035400;28;20177;-73
2021/10/19 11:51:13;;;;;;;14.10;12.65;;;;;;;;;;5052322;28;20180;-74
2021/10/19 11:53:39;;;;;;;17.98;11.95;;;;;;;;;;5056821;28;20202;-74
2021/10/19 11:56:05;;;;;;;15.05;12.55;;;;;;;;;;5050739;28;20737;-73
2021/10/19 11:58:31;;;;;;;16.60;13.85;;;;;;;;;;5061332;28;20186;-74
2021/10/19 12:00:56;;;;;;;18.17;14.20;;;;;;;;;;5062822;28;20250;-74
2021/10/19 12:03:28;;;;;;;13.95;12.10;;;;;;;;;;5051531;28;20319;-74
2021/10/19 12:05:53;;;;;;;14.82;13.23;;;;;;;;;;5044401;28;20221;-74
2021/10/19 12:08:18;;;;;;;15.47;12.53;;;;;;;;;;5058262;28;20185;-74
2021/10/19 12:10:46;;;;;;;17.65;13.27;;;;;;;;;;5058027;28;20441;-74
2021/10/19 12:13:12;;;;;;;16.33;12.32;;;;;;;;;;5056325;28;20221;-74
2021/10/19 12:15:38;;;;;;;17.48;13.70;;;;;;;;;;5062618;28;20177;-74
2021/10/19 12:18:07;;;;;;;16.38;12.90;;;;;;;;;;5058338;28;20185;-74
2021/10/19 12:20:34;;;;;;;19.10;14.25;;;;;;;;;;5055911;28;20188;-73
2021/10/19 12:23:00;;;;;;;17.67;13.25;;;;;;;;;;5040653;28;20208;-73
2021/10/19 12:25:26;;;;;;;20.50;14.15;;;;;;;;;;5056090;28;20200;-73
2021/10/19 12:27:51;;;;;;;18.45;13.90;;;;;;;;;;5055094;28;20177;-73
2021/10/19 12:30:16;;;;;;;22.75;13.45;;;;;;;;;;5056638;28;20219;-73
2021/10/19 12:32:43;;;;;;;16.98;14.32;;;;;;;;;;5061114;28;20198;-73
2021/10/19 12:35:09;;;;;;;18.65;14.30;;;;;;;;;;5037977;28;20264;-74
2021/10/19 12:37:35;;;;;;;19.13;14.00;;;;;;;;;;5050338;28;20177;-74
2021/10/19 12:40:02;;;;;;;18.00;14.55;;;;;;;;;;5057005;28;20195;-73
2021/10/19 12:42:27;;;;;;;17.63;13.75;;;;;;;;;;5033383;28;21627;-73
2021/10/19 12:44:52;;;;;;;17.15;13.45;;;;;;;;;;5054134;28;20219;-73
2021/10/19 12:47:18;;;;;;;20.83;14.15;;;;;;;;;;5048272;28;20172;-73
2021/10/19 12:49:43;;;;;;;16.88;13.48;;;;;;;;;;5058498;28;20177;-72
2021/10/19 12:52:08;;;;;;;20.63;14.73;;;;;;;;;;5035224;28;20197;-74
2021/10/19 12:54:34;;;;;;;17.70;13.52;;;;;;;;;;5034454;28;21104;-74
2021/10/19 12:56:59;;;;;;;16.42;13.55;;;;;;;;;;5049803;28;20300;-74
2021/10/19 12:59:24;;;;;;;18.30;12.80;;;;;;;;;;5049661;28;20172;-73
2021/10/19 13:01:49;;;;;;;15.55;13.73;;;;;;;;;;5049207;28;20425;-73
2021/10/19 13:04:14;;;;;;;17.05;13.90;;;;;;;;;;5049173;28;20203;-73
2021/10/19 13:06:40;;;;;;;19.40;14.32;;;;;;;;;;5048312;28;20196;-73
2021/10/19 13:09:06;;;;;;;19.38;13.90;;;;;;;;;;5033952;28;20181;-73
2021/10/19 13:11:31;;;;;;;19.88;13.80;;;;;;;;;;5033042;28;20303;-73
2021/10/19 13:13:56;;;;;;;19.50;14.25;;;;;;;;;;5049910;28;20197;-73
2021/10/19 13:16:21;;;;;;;20.02;14.95;;;;;;;;;;5048863;28;20184;-73
2021/10/19 13:18:47;;;;;;;16.58;14.82;;;;;;;;;;5055374;28;20193;-73
2021/10/19 13:21:13;;;;;;;18.63;14.27;;;;;;;;;;5046840;28;20196;-73
2021/10/19 13:23:39;;;;;;;22.10;15.02;;;;;;;;;;5050962;28;20566;-73
2021/10/19 13:26:04;;;;;;;19.73;14.80;;;;;;;;;;5030708;28;20217;-73
2021/10/19 13:28:30;;;;;;;19.02;14.93;;;;;;;;;;5049113;28;20224;-73
2021/10/19 13:30:55;;;;;;;23.33;14.45;;;;;;;;;;5050320;28;20303;-73
2021/10/19 13:33:21;;;;;;;16.33;14.27;;;;;;;;;;5049499;28;20197;-73
2021/10/19 13:35:47;;;;;;;16.88;13.70;;;;;;;;;;5035993;28;20705;-73
2021/10/19 13:38:12;;;;;;;15.18;12.88;;;;;;;;;;5050267;28;20215;-73
2021/10/19 13:40:39;;;;;;;16.55;13.70;;;;;;;;;;5034182;28;20283;-73
2021/10/19 13:43:05;;;;;;;16.33;13.90;;;;;;;;;;5052546;28;20806;-73
2021/10/19 13:45:30;;;;;;;18.70;13.43;;;;;;;;;;5049277;28;20219;-73
2021/10/19 13:47:55;;;;;;;17.13;13.82;;;;;;;;;;5047660;28;20177;-72
2021/10/19 13:50:21;;;;;;;19.67;15.37;;;;;;;;;;5046526;28;20662;-71
2021/10/19 13:52:46;;;;;;;16.45;14.50;;;;;;;;;;5048187;28;20462;-72
2021/10/19 13:55:11;;;;;;;15.85;12.93;;;;;;;;;;5048443;28;20189;-71
2021/10/19 13:57:37;;;;;;;15.95;12.88;;;;;;;;;;5050587;28;20185;-71
2021/10/19 14:00:04;;;;;;;16.83;13.38;;;;;;;;;;5050023;28;20656;-71
2021/10/19 14:02:29;;;;;;;16.13;13.70;;;;;;;;;;5050322;28;20712;-69
2021/10/19 14:04:54;;;;;;;15.05;12.77;;;;;;;;;;5050548;28;20197;-70
2021/10/19 14:07:19;;;;;;;14.73;12.87;;;;;;;;;;5048462;28;20185;-69